sensor_id;sensor_type;location;lat;lon;timestamp;P1;durP1;ratioP1;P2;durP2;ratioP2
72422;SDS011;71399;54.146;38.734;2023-07-20T00:02:03;11.88;;;4.70;;
72422;SDS011;71399;54.146;38.734;2023-07-20T00:04:31;14.43;;;4.70;;
72422;SDS011;71399;54.146;38.734;2023-07-20T00:06:57;16.02;;;4.50;;
72422;SDS011;71399;54.146;38.734;2023-07-20T00:09:26;19.63;;;5.00;;
72422;SDS011;71399;54.146;38.734;2023-07-20T00:11:53;11.23;;;4.47;;
72422;SDS011;71399;54.146;38.734;2023-07-20T00:14:19;14.52;;;4.22;;
72422;SDS011;71399;54.146;38.734;2023-07-20T00:16:45;9.55;;;3.72;;
72422;SDS011;71399;54.146;38.734;2023-07-20T00:19:12;19.85;;;4.78;;
72422;SDS011;71399;54.146;38.734;2023-07-20T00:21:38;15.95;;;4.90;;
72422;SDS011;71399;54.146;38.734;2023-07-20T00:24:08;17.77;;;5.60;;
72422;SDS011;71399;54.146;38.734;2023-07-20T00:26:34;16.98;;;4.70;;
72422;SDS011;71399;54.146;38.734;2023-07-20T00:29:00;23.70;;;5.50;;
72422;SDS011;71399;54.146;38.734;2023-07-20T00:31:27;12.68;;;4.95;;
72422;SDS011;71399;54.146;38.734;2023-07-20T00:33:56;17.58;;;5.47;;
72422;SDS011;71399;54.146;38.734;2023-07-20T00:36:22;15.25;;;5.07;;
72422;SDS011;71399;54.146;38.734;2023-07-20T00:38:48;12.75;;;4.47;;
72422;SDS011;71399;54.146;38.734;2023-07-20T00:41:15;16.10;;;5.00;;
72422;SDS011;71399;54.146;38.734;2023-07-20T00:43:41;14.30;;;5.68;;
72422;SDS011;71399;54.146;38.734;2023-07-20T00:46:08;16.65;;;5.28;;
72422;SDS011;71399;54.146;38.734;2023-07-20T00:48:35;18.70;;;5.45;;
72422;SDS011;71399;54.146;38.734;2023-07-20T00:51:02;10.50;;;4.60;;
72422;SDS011;71399;54.146;38.734;2023-07-20T00:53:28;12.18;;;4.47;;
72422;SDS011;71399;54.146;38.734;2023-07-20T00:55:54;15.82;;;5.10;;
72422;SDS011;71399;54.146;38.734;2023-07-20T00:58:21;12.02;;;4.82;;
72422;SDS011;71399;54.146;38.734;2023-07-20T01:00:48;10.88;;;3.72;;
72422;SDS011;71399;54.146;38.734;2023-07-20T01:03:14;15.43;;;4.55;;
72422;SDS011;71399;54.146;38.734;2023-07-20T01:05:42;15.30;;;5.03;;
72422;SDS011;71399;54.146;38.734;2023-07-20T01:08:33;11.25;;;5.28;;
72422;SDS011;71399;54.146;38.734;2023-07-20T01:11:06;15.90;;;4.97;;
72422;SDS011;71399;54.146;38.734;2023-07-20T01:13:48;21.77;;;5.78;;
72422;SDS011;71399;54.146;38.734;2023-07-20T01:16:15;16.00;;;5.50;;
72422;SDS011;71399;54.146;38.734;2023-07-20T01:18:42;24.50;;;6.03;;
72422;SDS011;71399;54.146;38.734;2023-07-20T01:21:09;17.65;;;5.28;;
72422;SDS011;71399;54.146;38.734;2023-07-20T01:23:56;23.40;;;6.30;;
72422;SDS011;71399;54.146;38.734;2023-07-20T01:26:37;23.50;;;6.95;;
72422;SDS011;71399;54.146;38.734;2023-07-20T01:32:04;28.35;;;7.65;;
72422;SDS011;71399;54.146;38.734;2023-07-20T01:34:35;32.25;;;8.80;;
72422;SDS011;71399;54.146;38.734;2023-07-20T01:37:03;27.73;;;8.63;;
72422;SDS011;71399;54.146;38.734;2023-07-20T01:39:30;24.55;;;7.57;;
72422;SDS011;71399;54.146;38.734;2023-07-20T01:41:58;26.38;;;7.95;;
72422;SDS011;71399;54.146;38.734;2023-07-20T01:44:26;29.75;;;8.52;;
72422;SDS011;71399;54.146;38.734;2023-07-20T01:46:53;28.50;;;7.25;;
72422;SDS011;71399;54.146;38.734;2023-07-20T01:49:19;23.30;;;6.60;;
72422;SDS011;71399;54.146;38.734;2023-07-20T01:51:45;24.92;;;6.70;;
72422;SDS011;71399;54.146;38.734;2023-07-20T01:54:11;14.38;;;5.65;;
72422;SDS011;71399;54.146;38.734;2023-07-20T01:56:38;21.52;;;6.30;;
72422;SDS011;71399;54.146;38.734;2023-07-20T01:59:04;17.98;;;6.05;;
72422;SDS011;71399;54.146;38.734;2023-07-20T02:01:31;17.80;;;5.60;;
72422;SDS011;71399;54.146;38.734;2023-07-20T02:03:57;17.00;;;5.45;;
72422;SDS011;71399;54.146;38.734;2023-07-20T02:06:23;17.50;;;5.43;;
72422;SDS011;71399;54.146;38.734;2023-07-20T02:08:49;16.63;;;5.00;;
72422;SDS011;71399;54.146;38.734;2023-07-20T02:11:15;19.58;;;5.40;;
72422;SDS011;71399;54.146;38.734;2023-07-20T02:13:42;15.98;;;5.22;;
72422;SDS011;71399;54.146;38.734;2023-07-20T02:16:08;17.00;;;5.38;;
72422;SDS011;71399;54.146;38.734;2023-07-20T02:18:34;15.65;;;5.55;;
72422;SDS011;71399;54.146;38.734;2023-07-20T02:21:01;20.05;;;5.20;;
72422;SDS011;71399;54.146;38.734;2023-07-20T02:23:27;21.58;;;5.78;;
72422;SDS011;71399;54.146;38.734;2023-07-20T02:25:53;16.35;;;4.60;;
72422;SDS011;71399;54.146;38.734;2023-07-20T02:28:20;17.13;;;5.18;;
72422;SDS011;71399;54.146;38.734;2023-07-20T02:30:46;13.65;;;4.20;;
72422;SDS011;71399;54.146;38.734;2023-07-20T02:33:12;13.80;;;4.07;;
72422;SDS011;71399;54.146;38.734;2023-07-20T02:35:39;15.30;;;4.05;;
72422;SDS011;71399;54.146;38.734;2023-07-20T02:38:07;13.38;;;3.67;;
72422;SDS011;71399;54.146;38.734;2023-07-20T02:40:33;17.77;;;3.58;;
72422;SDS011;71399;54.146;38.734;2023-07-20T02:43:00;11.98;;;3.28;;
72422;SDS011;71399;54.146;38.734;2023-07-20T02:45:26;11.88;;;3.38;;
72422;SDS011;71399;54.146;38.734;2023-07-20T02:47:52;10.65;;;2.58;;
72422;SDS011;71399;54.146;38.734;2023-07-20T02:50:18;9.07;;;2.83;;
72422;SDS011;71399;54.146;38.734;2023-07-20T02:52:45;6.30;;;2.08;;
72422;SDS011;71399;54.146;38.734;2023-07-20T02:55:11;5.18;;;2.38;;
72422;SDS011;71399;54.146;38.734;2023-07-20T02:57:37;5.95;;;2.25;;
72422;SDS011;71399;54.146;38.734;2023-07-20T03:00:03;4.53;;;1.90;;
72422;SDS011;71399;54.146;38.734;2023-07-20T03:02:31;6.78;;;2.15;;
72422;SDS011;71399;54.146;38.734;2023-07-20T03:04:58;3.28;;;1.65;;
72422;SDS011;71399;54.146;38.734;2023-07-20T03:07:27;4.32;;;1.90;;
72422;SDS011;71399;54.146;38.734;2023-07-20T03:09:54;4.53;;;1.85;;
72422;SDS011;71399;54.146;38.734;2023-07-20T03:12:20;6.28;;;2.15;;
72422;SDS011;71399;54.146;38.734;2023-07-20T03:14:48;5.25;;;1.70;;
72422;SDS011;71399;54.146;38.734;2023-07-20T03:17:14;6.47;;;2.08;;
72422;SDS011;71399;54.146;38.734;2023-07-20T03:19:40;8.18;;;2.20;;
72422;SDS011;71399;54.146;38.734;2023-07-20T03:22:07;5.88;;;1.70;;
72422;SDS011;71399;54.146;38.734;2023-07-20T03:24:33;4.22;;;2.00;;
72422;SDS011;71399;54.146;38.734;2023-07-20T03:26:59;5.03;;;2.00;;
72422;SDS011;71399;54.146;38.734;2023-07-20T03:29:25;3.83;;;2.00;;
72422;SDS011;71399;54.146;38.734;2023-07-20T03:31:52;4.40;;;1.85;;
72422;SDS011;71399;54.146;38.734;2023-07-20T03:34:18;6.00;;;1.90;;
72422;SDS011;71399;54.146;38.734;2023-07-20T03:36:44;4.03;;;2.00;;
72422;SDS011;71399;54.146;38.734;2023-07-20T03:39:11;5.05;;;1.92;;
72422;SDS011;71399;54.146;38.734;2023-07-20T03:41:38;8.82;;;1.55;;
72422;SDS011;71399;54.146;38.734;2023-07-20T03:44:04;4.93;;;1.50;;
72422;SDS011;71399;54.146;38.734;2023-07-20T03:46:30;5.53;;;1.90;;
72422;SDS011;71399;54.146;38.734;2023-07-20T03:48:56;5.25;;;1.40;;
72422;SDS011;71399;54.146;38.734;2023-07-20T03:51:22;4.13;;;1.90;;
72422;SDS011;71399;54.146;38.734;2023-07-20T03:53:49;4.50;;;1.67;;
72422;SDS011;71399;54.146;38.734;2023-07-20T03:56:15;4.80;;;1.55;;
72422;SDS011;71399;54.146;38.734;2023-07-20T03:58:41;2.85;;;1.40;;
72422;SDS011;71399;54.146;38.734;2023-07-20T04:01:07;5.53;;;1.55;;
72422;SDS011;71399;54.146;38.734;2023-07-20T04:03:35;2.95;;;1.48;;
72422;SDS011;71399;54.146;38.734;2023-07-20T04:06:02;6.32;;;1.77;;
72422;SDS011;71399;54.146;38.734;2023-07-20T04:08:28;5.88;;;1.70;;
72422;SDS011;71399;54.146;38.734;2023-07-20T04:10:54;2.67;;;1.40;;
72422;SDS011;71399;54.146;38.734;2023-07-20T04:13:20;13.40;;;1.70;;
72422;SDS011;71399;54.146;38.734;2023-07-20T04:15:47;3.15;;;1.42;;
72422;SDS011;71399;54.146;38.734;2023-07-20T04:18:14;3.60;;;1.52;;
72422;SDS011;71399;54.146;38.734;2023-07-20T04:20:40;3.03;;;1.60;;
72422;SDS011;71399;54.146;38.734;2023-07-20T04:23:07;5.38;;;1.67;;
72422;SDS011;71399;54.146;38.734;2023-07-20T04:25:33;5.47;;;2.08;;
72422;SDS011;71399;54.146;38.734;2023-07-20T04:28:05;5.07;;;1.67;;
72422;SDS011;71399;54.146;38.734;2023-07-20T04:30:37;4.50;;;1.48;;
72422;SDS011;71399;54.146;38.734;2023-07-20T04:33:04;4.88;;;1.65;;
72422;SDS011;71399;54.146;38.734;2023-07-20T04:35:47;4.25;;;1.60;;
72422;SDS011;71399;54.146;38.734;2023-07-20T04:38:17;3.50;;;1.42;;
72422;SDS011;71399;54.146;38.734;2023-07-20T04:40:46;2.35;;;1.25;;
72422;SDS011;71399;54.146;38.734;2023-07-20T04:43:14;5.20;;;1.25;;
72422;SDS011;71399;54.146;38.734;2023-07-20T04:45:41;3.55;;;1.40;;
72422;SDS011;71399;54.146;38.734;2023-07-20T04:48:11;5.00;;;1.80;;
72422;SDS011;71399;54.146;38.734;2023-07-20T04:50:45;3.17;;;1.23;;
72422;SDS011;71399;54.146;38.734;2023-07-20T04:53:12;3.33;;;1.30;;
72422;SDS011;71399;54.146;38.734;2023-07-20T04:55:39;3.90;;;1.35;;
72422;SDS011;71399;54.146;38.734;2023-07-20T04:58:07;4.28;;;1.38;;
72422;SDS011;71399;54.146;38.734;2023-07-20T05:00:37;5.00;;;1.33;;
72422;SDS011;71399;54.146;38.734;2023-07-20T05:03:04;2.33;;;1.20;;
72422;SDS011;71399;54.146;38.734;2023-07-20T05:05:31;3.97;;;1.40;;
72422;SDS011;71399;54.146;38.734;2023-07-20T05:07:57;8.10;;;1.48;;
72422;SDS011;71399;54.146;38.734;2023-07-20T05:10:24;5.13;;;1.48;;
72422;SDS011;71399;54.146;38.734;2023-07-20T05:12:50;4.93;;;1.77;;
72422;SDS011;71399;54.146;38.734;2023-07-20T05:15:17;6.10;;;2.92;;
72422;SDS011;71399;54.146;38.734;2023-07-20T05:17:43;4.72;;;1.88;;
72422;SDS011;71399;54.146;38.734;2023-07-20T05:20:09;4.35;;;1.75;;
72422;SDS011;71399;54.146;38.734;2023-07-20T05:22:36;4.97;;;2.65;;
72422;SDS011;71399;54.146;38.734;2023-07-20T05:25:07;3.05;;;1.50;;
72422;SDS011;71399;54.146;38.734;2023-07-20T05:27:36;4.07;;;1.52;;
72422;SDS011;71399;54.146;38.734;2023-07-20T05:30:03;3.08;;;1.35;;
72422;SDS011;71399;54.146;38.734;2023-07-20T05:32:30;3.17;;;1.30;;
72422;SDS011;71399;54.146;38.734;2023-07-20T05:34:57;4.20;;;1.63;;
72422;SDS011;71399;54.146;38.734;2023-07-20T05:37:23;4.20;;;1.25;;
72422;SDS011;71399;54.146;38.734;2023-07-20T05:39:49;4.82;;;1.30;;
72422;SDS011;71399;54.146;38.734;2023-07-20T05:42:16;7.32;;;1.70;;
72422;SDS011;71399;54.146;38.734;2023-07-20T05:44:42;6.40;;;1.48;;
72422;SDS011;71399;54.146;38.734;2023-07-20T05:47:08;5.00;;;1.40;;
72422;SDS011;71399;54.146;38.734;2023-07-20T05:49:35;5.30;;;1.40;;
72422;SDS011;71399;54.146;38.734;2023-07-20T05:52:01;4.93;;;1.85;;
72422;SDS011;71399;54.146;38.734;2023-07-20T05:54:27;4.75;;;1.27;;
72422;SDS011;71399;54.146;38.734;2023-07-20T05:56:54;5.38;;;1.38;;
72422;SDS011;71399;54.146;38.734;2023-07-20T05:59:20;4.30;;;1.30;;
72422;SDS011;71399;54.146;38.734;2023-07-20T06:01:46;6.57;;;1.52;;
72422;SDS011;71399;54.146;38.734;2023-07-20T06:04:14;4.95;;;1.40;;
72422;SDS011;71399;54.146;38.734;2023-07-20T06:06:40;4.45;;;1.30;;
72422;SDS011;71399;54.146;38.734;2023-07-20T06:09:07;6.07;;;1.48;;
72422;SDS011;71399;54.146;38.734;2023-07-20T06:11:38;2.40;;;1.45;;
72422;SDS011;71399;54.146;38.734;2023-07-20T06:14:04;5.28;;;1.27;;
72422;SDS011;71399;54.146;38.734;2023-07-20T06:16:31;3.88;;;1.42;;
72422;SDS011;71399;54.146;38.734;2023-07-20T06:18:58;6.00;;;1.30;;
72422;SDS011;71399;54.146;38.734;2023-07-20T06:21:25;7.20;;;1.30;;
72422;SDS011;71399;54.146;38.734;2023-07-20T06:23:51;2.58;;;1.00;;
72422;SDS011;71399;54.146;38.734;2023-07-20T06:26:17;2.25;;;0.90;;
72422;SDS011;71399;54.146;38.734;2023-07-20T06:28:45;5.75;;;1.15;;
72422;SDS011;71399;54.146;38.734;2023-07-20T06:31:11;3.42;;;1.05;;
72422;SDS011;71399;54.146;38.734;2023-07-20T06:33:37;3.47;;;0.90;;
72422;SDS011;71399;54.146;38.734;2023-07-20T06:36:04;4.07;;;1.05;;
72422;SDS011;71399;54.146;38.734;2023-07-20T06:38:30;4.65;;;1.10;;
72422;SDS011;71399;54.146;38.734;2023-07-20T06:40:56;3.17;;;0.82;;
72422;SDS011;71399;54.146;38.734;2023-07-20T06:43:22;4.90;;;1.15;;
72422;SDS011;71399;54.146;38.734;2023-07-20T06:45:52;3.90;;;1.10;;
72422;SDS011;71399;54.146;38.734;2023-07-20T06:48:21;5.45;;;1.00;;
72422;SDS011;71399;54.146;38.734;2023-07-20T06:50:47;1.92;;;0.90;;
72422;SDS011;71399;54.146;38.734;2023-07-20T06:53:13;5.40;;;0.90;;
72422;SDS011;71399;54.146;38.734;2023-07-20T06:55:41;2.97;;;0.98;;
72422;SDS011;71399;54.146;38.734;2023-07-20T06:58:08;2.20;;;1.08;;
72422;SDS011;71399;54.146;38.734;2023-07-20T07:00:35;3.20;;;1.10;;
72422;SDS011;71399;54.146;38.734;2023-07-20T07:03:01;3.17;;;0.80;;
72422;SDS011;71399;54.146;38.734;2023-07-20T07:05:28;5.95;;;1.20;;
72422;SDS011;71399;54.146;38.734;2023-07-20T07:07:54;2.65;;;0.80;;
72422;SDS011;71399;54.146;38.734;2023-07-20T07:10:20;6.50;;;1.00;;
72422;SDS011;71399;54.146;38.734;2023-07-20T07:12:47;5.18;;;1.10;;
72422;SDS011;71399;54.146;38.734;2023-07-20T07:15:13;3.65;;;1.10;;
72422;SDS011;71399;54.146;38.734;2023-07-20T07:17:39;4.30;;;1.33;;
72422;SDS011;71399;54.146;38.734;2023-07-20T07:20:06;3.70;;;0.80;;
72422;SDS011;71399;54.146;38.734;2023-07-20T07:22:33;2.75;;;0.95;;
72422;SDS011;71399;54.146;38.734;2023-07-20T07:24:59;2.92;;;0.98;;
72422;SDS011;71399;54.146;38.734;2023-07-20T07:27:25;4.22;;;1.20;;
72422;SDS011;71399;54.146;38.734;2023-07-20T07:29:51;2.35;;;0.95;;
72422;SDS011;71399;54.146;38.734;2023-07-20T07:32:17;2.40;;;1.00;;
72422;SDS011;71399;54.146;38.734;2023-07-20T07:34:43;5.50;;;1.10;;
72422;SDS011;71399;54.146;38.734;2023-07-20T07:37:11;6.57;;;0.80;;
72422;SDS011;71399;54.146;38.734;2023-07-20T07:39:38;6.38;;;1.00;;
72422;SDS011;71399;54.146;38.734;2023-07-20T07:42:05;2.10;;;0.77;;
72422;SDS011;71399;54.146;38.734;2023-07-20T07:44:31;2.63;;;1.00;;
72422;SDS011;71399;54.146;38.734;2023-07-20T07:46:58;2.10;;;1.00;;
72422;SDS011;71399;54.146;38.734;2023-07-20T07:49:24;2.60;;;0.80;;
72422;SDS011;71399;54.146;38.734;2023-07-20T07:51:50;2.40;;;0.93;;
72422;SDS011;71399;54.146;38.734;2023-07-20T07:54:17;5.07;;;1.15;;
72422;SDS011;71399;54.146;38.734;2023-07-20T07:56:43;5.28;;;0.90;;
72422;SDS011;71399;54.146;38.734;2023-07-20T07:59:10;3.70;;;1.00;;
72422;SDS011;71399;54.146;38.734;2023-07-20T08:01:36;5.05;;;1.17;;
72422;SDS011;71399;54.146;38.734;2023-07-20T08:04:03;4.75;;;1.23;;
72422;SDS011;71399;54.146;38.734;2023-07-20T08:06:29;2.95;;;1.30;;
72422;SDS011;71399;54.146;38.734;2023-07-20T08:08:55;2.35;;;1.17;;
72422;SDS011;71399;54.146;38.734;2023-07-20T08:11:21;4.82;;;1.40;;
72422;SDS011;71399;54.146;38.734;2023-07-20T08:13:49;5.85;;;1.42;;
72422;SDS011;71399;54.146;38.734;2023-07-20T08:16:15;4.82;;;1.02;;
72422;SDS011;71399;54.146;38.734;2023-07-20T08:18:43;4.55;;;1.30;;
72422;SDS011;71399;54.146;38.734;2023-07-20T08:21:11;4.28;;;1.02;;
72422;SDS011;71399;54.146;38.734;2023-07-20T08:23:37;13.18;;;1.40;;
72422;SDS011;71399;54.146;38.734;2023-07-20T08:26:03;4.50;;;1.30;;
72422;SDS011;71399;54.146;38.734;2023-07-20T08:28:29;4.70;;;1.33;;
72422;SDS011;71399;54.146;38.734;2023-07-20T08:30:57;2.78;;;1.30;;
72422;SDS011;71399;54.146;38.734;2023-07-20T08:33:23;3.45;;;1.20;;
72422;SDS011;71399;54.146;38.734;2023-07-20T08:35:49;2.63;;;1.00;;
72422;SDS011;71399;54.146;38.734;2023-07-20T08:38:16;3.65;;;1.10;;
72422;SDS011;71399;54.146;38.734;2023-07-20T08:40:45;2.50;;;0.90;;
72422;SDS011;71399;54.146;38.734;2023-07-20T08:43:12;4.97;;;1.35;;
72422;SDS011;71399;54.146;38.734;2023-07-20T08:45:39;4.55;;;1.02;;
72422;SDS011;71399;54.146;38.734;2023-07-20T08:48:07;3.25;;;1.33;;
72422;SDS011;71399;54.146;38.734;2023-07-20T08:50:34;2.80;;;1.10;;
72422;SDS011;71399;54.146;38.734;2023-07-20T08:53:01;6.20;;;1.20;;
72422;SDS011;71399;54.146;38.734;2023-07-20T08:55:28;3.28;;;1.10;;
72422;SDS011;71399;54.146;38.734;2023-07-20T08:57:55;3.95;;;1.30;;
72422;SDS011;71399;54.146;38.734;2023-07-20T09:00:23;2.53;;;1.13;;
72422;SDS011;71399;54.146;38.734;2023-07-20T09:02:51;4.15;;;1.23;;
72422;SDS011;71399;54.146;38.734;2023-07-20T09:05:19;3.58;;;1.33;;
72422;SDS011;71399;54.146;38.734;2023-07-20T09:07:46;7.53;;;1.60;;
72422;SDS011;71399;54.146;38.734;2023-07-20T09:10:12;5.45;;;1.80;;
72422;SDS011;71399;54.146;38.734;2023-07-20T09:12:39;6.72;;;1.63;;
72422;SDS011;71399;54.146;38.734;2023-07-20T09:15:07;3.75;;;1.40;;
72422;SDS011;71399;54.146;38.734;2023-07-20T09:17:35;1.40;;;0.88;;
72422;SDS011;71399;54.146;38.734;2023-07-20T09:20:02;3.00;;;1.40;;
72422;SDS011;71399;54.146;38.734;2023-07-20T09:22:47;2.92;;;1.27;;
72422;SDS011;71399;54.146;38.734;2023-07-20T09:25:16;3.35;;;1.08;;
72422;SDS011;71399;54.146;38.734;2023-07-20T09:27:44;4.22;;;1.10;;
72422;SDS011;71399;54.146;38.734;2023-07-20T09:30:12;2.30;;;1.17;;
72422;SDS011;71399;54.146;38.734;2023-07-20T09:35:14;2.03;;;1.00;;
72422;SDS011;71399;54.146;38.734;2023-07-20T09:37:59;3.45;;;0.95;;
72422;SDS011;71399;54.146;38.734;2023-07-20T09:40:27;7.05;;;1.30;;
72422;SDS011;71399;54.146;38.734;2023-07-20T09:42:53;5.38;;;1.10;;
72422;SDS011;71399;54.146;38.734;2023-07-20T09:45:29;2.58;;;1.35;;
72422;SDS011;71399;54.146;38.734;2023-07-20T09:48:05;3.38;;;1.27;;
72422;SDS011;71399;54.146;38.734;2023-07-20T09:50:32;2.22;;;1.20;;
72422;SDS011;71399;54.146;38.734;2023-07-20T09:53:00;4.40;;;1.20;;
72422;SDS011;71399;54.146;38.734;2023-07-20T09:55:30;2.42;;;0.90;;
72422;SDS011;71399;54.146;38.734;2023-07-20T09:57:57;3.30;;;1.00;;
72422;SDS011;71399;54.146;38.734;2023-07-20T10:00:23;4.45;;;1.20;;
72422;SDS011;71399;54.146;38.734;2023-07-20T10:02:49;3.80;;;1.00;;
72422;SDS011;71399;54.146;38.734;2023-07-20T10:05:17;4.43;;;1.15;;
72422;SDS011;71399;54.146;38.734;2023-07-20T10:07:48;3.78;;;0.88;;
72422;SDS011;71399;54.146;38.734;2023-07-20T10:10:16;3.35;;;1.00;;
72422;SDS011;71399;54.146;38.734;2023-07-20T10:12:46;4.50;;;1.20;;
72422;SDS011;71399;54.146;38.734;2023-07-20T10:17:53;3.28;;;0.90;;
72422;SDS011;71399;54.146;38.734;2023-07-20T10:20:21;3.10;;;1.10;;
72422;SDS011;71399;54.146;38.734;2023-07-20T10:22:48;2.60;;;0.90;;
72422;SDS011;71399;54.146;38.734;2023-07-20T10:25:17;4.70;;;1.20;;
72422;SDS011;71399;54.146;38.734;2023-07-20T10:27:45;3.17;;;1.10;;
72422;SDS011;71399;54.146;38.734;2023-07-20T10:30:13;5.05;;;1.33;;
72422;SDS011;71399;54.146;38.734;2023-07-20T10:32:40;2.33;;;1.05;;
72422;SDS011;71399;54.146;38.734;2023-07-20T10:35:17;5.10;;;1.27;;
72422;SDS011;71399;54.146;38.734;2023-07-20T10:37:51;5.35;;;1.17;;
72422;SDS011;71399;54.146;38.734;2023-07-20T10:40:31;4.15;;;1.80;;
72422;SDS011;71399;54.146;38.734;2023-07-20T10:43:07;2.15;;;1.02;;
72422;SDS011;71399;54.146;38.734;2023-07-20T10:48:20;3.60;;;2.45;;
72422;SDS011;71399;54.146;38.734;2023-07-20T10:53:40;4.82;;;1.20;;
72422;SDS011;71399;54.146;38.734;2023-07-20T10:56:27;4.88;;;1.33;;
72422;SDS011;71399;54.146;38.734;2023-07-20T10:58:59;5.13;;;1.55;;
72422;SDS011;71399;54.146;38.734;2023-07-20T11:01:29;4.53;;;1.33;;
72422;SDS011;71399;54.146;38.734;2023-07-20T11:03:57;6.10;;;1.90;;
72422;SDS011;71399;54.146;38.734;2023-07-20T11:08:57;3.28;;;1.20;;
72422;SDS011;71399;54.146;38.734;2023-07-20T11:11:42;2.00;;;1.20;;
72422;SDS011;71399;54.146;38.734;2023-07-20T11:16:46;5.47;;;1.20;;
72422;SDS011;71399;54.146;38.734;2023-07-20T11:19:23;2.65;;;1.20;;
72422;SDS011;71399;54.146;38.734;2023-07-20T11:21:53;3.08;;;0.95;;
72422;SDS011;71399;54.146;38.734;2023-07-20T11:24:23;3.00;;;1.20;;
72422;SDS011;71399;54.146;38.734;2023-07-20T11:26:50;2.53;;;1.08;;
72422;SDS011;71399;54.146;38.734;2023-07-20T11:29:20;4.20;;;0.90;;
72422;SDS011;71399;54.146;38.734;2023-07-20T11:31:48;3.65;;;1.20;;
72422;SDS011;71399;54.146;38.734;2023-07-20T11:34:15;5.07;;;1.17;;
72422;SDS011;71399;54.146;38.734;2023-07-20T11:36:44;6.50;;;1.40;;
72422;SDS011;71399;54.146;38.734;2023-07-20T11:39:16;3.50;;;1.27;;
72422;SDS011;71399;54.146;38.734;2023-07-20T11:41:48;5.00;;;1.38;;
72422;SDS011;71399;54.146;38.734;2023-07-20T11:44:20;2.55;;;1.38;;
72422;SDS011;71399;54.146;38.734;2023-07-20T11:47:04;3.40;;;1.40;;
72422;SDS011;71399;54.146;38.734;2023-07-20T11:49:35;5.15;;;1.10;;
72422;SDS011;71399;54.146;38.734;2023-07-20T11:52:06;7.18;;;1.40;;
72422;SDS011;71399;54.146;38.734;2023-07-20T11:54:34;2.92;;;1.00;;
72422;SDS011;71399;54.146;38.734;2023-07-20T11:57:01;2.47;;;1.00;;
72422;SDS011;71399;54.146;38.734;2023-07-20T11:59:28;2.53;;;0.90;;
72422;SDS011;71399;54.146;38.734;2023-07-20T12:01:54;3.13;;;1.00;;
72422;SDS011;71399;54.146;38.734;2023-07-20T12:04:22;2.05;;;0.90;;
72422;SDS011;71399;54.146;38.734;2023-07-20T12:06:49;5.88;;;1.30;;
72422;SDS011;71399;54.146;38.734;2023-07-20T12:09:16;3.15;;;0.95;;
72422;SDS011;71399;54.146;38.734;2023-07-20T12:11:43;2.45;;;1.00;;
72422;SDS011;71399;54.146;38.734;2023-07-20T12:14:10;4.00;;;1.10;;
72422;SDS011;71399;54.146;38.734;2023-07-20T12:16:37;1.38;;;0.70;;
72422;SDS011;71399;54.146;38.734;2023-07-20T12:19:10;2.78;;;1.15;;
72422;SDS011;71399;54.146;38.734;2023-07-20T12:21:39;2.35;;;0.90;;
72422;SDS011;71399;54.146;38.734;2023-07-20T12:24:08;3.53;;;0.90;;
72422;SDS011;71399;54.146;38.734;2023-07-20T12:26:35;3.65;;;0.95;;
72422;SDS011;71399;54.146;38.734;2023-07-20T12:29:02;4.18;;;0.80;;
72422;SDS011;71399;54.146;38.734;2023-07-20T12:31:29;4.43;;;1.02;;
72422;SDS011;71399;54.146;38.734;2023-07-20T12:33:57;2.25;;;0.95;;
72422;SDS011;71399;54.146;38.734;2023-07-20T12:36:24;1.70;;;0.93;;
72422;SDS011;71399;54.146;38.734;2023-07-20T12:38:50;1.75;;;0.80;;
72422;SDS011;71399;54.146;38.734;2023-07-20T12:41:17;3.08;;;1.00;;
72422;SDS011;71399;54.146;38.734;2023-07-20T12:43:44;5.82;;;1.15;;
72422;SDS011;71399;54.146;38.734;2023-07-20T12:46:11;2.55;;;0.90;;
72422;SDS011;71399;54.146;38.734;2023-07-20T12:48:39;2.55;;;0.90;;
72422;SDS011;71399;54.146;38.734;2023-07-20T12:51:08;2.70;;;1.00;;
72422;SDS011;71399;54.146;38.734;2023-07-20T12:53:35;1.60;;;0.80;;
72422;SDS011;71399;54.146;38.734;2023-07-20T12:56:02;3.05;;;1.00;;
72422;SDS011;71399;54.146;38.734;2023-07-20T12:58:28;2.92;;;0.90;;
72422;SDS011;71399;54.146;38.734;2023-07-20T13:00:54;2.60;;;0.95;;
72422;SDS011;71399;54.146;38.734;2023-07-20T13:03:20;4.07;;;0.80;;
72422;SDS011;71399;54.146;38.734;2023-07-20T13:05:47;4.45;;;0.80;;
72422;SDS011;71399;54.146;38.734;2023-07-20T13:08:14;3.53;;;0.90;;
72422;SDS011;71399;54.146;38.734;2023-07-20T13:10:41;3.03;;;0.90;;
72422;SDS011;71399;54.146;38.734;2023-07-20T13:13:07;4.57;;;0.80;;
72422;SDS011;71399;54.146;38.734;2023-07-20T13:15:40;3.90;;;1.08;;
72422;SDS011;71399;54.146;38.734;2023-07-20T13:20:34;2.75;;;1.08;;
72422;SDS011;71399;54.146;38.734;2023-07-20T13:23:00;1.67;;;1.00;;
72422;SDS011;71399;54.146;38.734;2023-07-20T13:25:26;3.50;;;1.30;;
72422;SDS011;71399;54.146;38.734;2023-07-20T13:27:53;1.65;;;0.80;;
72422;SDS011;71399;54.146;38.734;2023-07-20T13:30:20;2.30;;;0.80;;
72422;SDS011;71399;54.146;38.734;2023-07-20T13:32:47;4.55;;;1.20;;
72422;SDS011;71399;54.146;38.734;2023-07-20T13:35:14;4.43;;;1.50;;
72422;SDS011;71399;54.146;38.734;2023-07-20T13:37:40;3.85;;;1.40;;
72422;SDS011;71399;54.146;38.734;2023-07-20T13:40:07;4.43;;;1.83;;
72422;SDS011;71399;54.146;38.734;2023-07-20T13:42:37;4.18;;;1.63;;
72422;SDS011;71399;54.146;38.734;2023-07-20T13:45:04;6.90;;;1.00;;
72422;SDS011;71399;54.146;38.734;2023-07-20T13:47:31;6.32;;;1.40;;
72422;SDS011;71399;54.146;38.734;2023-07-20T13:49:57;7.65;;;2.00;;
72422;SDS011;71399;54.146;38.734;2023-07-20T13:52:23;1.88;;;0.98;;
72422;SDS011;71399;54.146;38.734;2023-07-20T13:54:49;4.88;;;1.40;;
72422;SDS011;71399;54.146;38.734;2023-07-20T13:57:15;1.95;;;0.90;;
72422;SDS011;71399;54.146;38.734;2023-07-20T13:59:42;3.45;;;0.90;;
72422;SDS011;71399;54.146;38.734;2023-07-20T14:02:08;3.13;;;0.90;;
72422;SDS011;71399;54.146;38.734;2023-07-20T14:04:35;9.32;;;4.00;;
72422;SDS011;71399;54.146;38.734;2023-07-20T14:07:01;12.63;;;3.60;;
72422;SDS011;71399;54.146;38.734;2023-07-20T14:09:28;10.25;;;4.95;;
72422;SDS011;71399;54.146;38.734;2023-07-20T14:11:54;19.23;;;8.30;;
72422;SDS011;71399;54.146;38.734;2023-07-20T14:14:20;5.40;;;2.22;;
72422;SDS011;71399;54.146;38.734;2023-07-20T14:16:46;5.50;;;2.30;;
72422;SDS011;71399;54.146;38.734;2023-07-20T14:19:12;4.80;;;1.38;;
72422;SDS011;71399;54.146;38.734;2023-07-20T14:21:38;2.97;;;1.40;;
72422;SDS011;71399;54.146;38.734;2023-07-20T14:24:05;4.03;;;1.15;;
72422;SDS011;71399;54.146;38.734;2023-07-20T14:26:31;4.90;;;1.55;;
72422;SDS011;71399;54.146;38.734;2023-07-20T14:28:57;4.03;;;1.33;;
72422;SDS011;71399;54.146;38.734;2023-07-20T14:31:23;6.68;;;1.65;;
72422;SDS011;71399;54.146;38.734;2023-07-20T14:33:49;3.05;;;1.10;;
72422;SDS011;71399;54.146;38.734;2023-07-20T14:36:16;7.03;;;1.20;;
72422;SDS011;71399;54.146;38.734;2023-07-20T14:38:42;2.15;;;0.93;;
72422;SDS011;71399;54.146;38.734;2023-07-20T14:41:08;2.88;;;1.17;;
72422;SDS011;71399;54.146;38.734;2023-07-20T14:43:35;3.03;;;0.98;;
72422;SDS011;71399;54.146;38.734;2023-07-20T14:46:01;5.68;;;1.00;;
72422;SDS011;71399;54.146;38.734;2023-07-20T14:48:27;3.53;;;1.20;;
72422;SDS011;71399;54.146;38.734;2023-07-20T14:50:53;2.75;;;0.95;;
72422;SDS011;71399;54.146;38.734;2023-07-20T14:53:19;10.15;;;1.10;;
72422;SDS011;71399;54.146;38.734;2023-07-20T14:55:45;2.30;;;1.33;;